sensor_id;sensor_type;location;lat;lon;timestamp;P1;durP1;ratioP1;P2;durP2;ratioP2
29412;SDS011;16389;50.126;8.450;2024-03-06T00:00:56;4.65;;;3.75;;
29412;SDS011;16389;50.126;8.450;2024-03-06T00:03:22;4.28;;;3.72;;
29412;SDS011;16389;50.126;8.450;2024-03-06T00:05:47;4.93;;;4.10;;
29412;SDS011;16389;50.126;8.450;2024-03-06T00:08:13;6.13;;;4.85;;
29412;SDS011;16389;50.126;8.450;2024-03-06T00:10:40;5.38;;;4.88;;
29412;SDS011;16389;50.126;8.450;2024-03-06T00:13:06;5.38;;;3.63;;
29412;SDS011;16389;50.126;8.450;2024-03-06T00:15:32;6.97;;;3.53;;
29412;SDS011;16389;50.126;8.450;2024-03-06T00:17:58;5.13;;;3.95;;
29412;SDS011;16389;50.126;8.450;2024-03-06T00:20:25;4.22;;;3.70;;
29412;SDS011;16389;50.126;8.450;2024-03-06T00:22:51;8.15;;;5.05;;
29412;SDS011;16389;50.126;8.450;2024-03-06T00:25:16;3.60;;;3.30;;
29412;SDS011;16389;50.126;8.450;2024-03-06T00:27:42;4.32;;;3.92;;
29412;SDS011;16389;50.126;8.450;2024-03-06T00:30:08;4.25;;;3.53;;
29412;SDS011;16389;50.126;8.450;2024-03-06T00:32:34;4.75;;;3.85;;
29412;SDS011;16389;50.126;8.450;2024-03-06T00:34:59;4.95;;;3.15;;
29412;SDS011;16389;50.126;8.450;2024-03-06T00:37:25;5.65;;;3.42;;
29412;SDS011;16389;50.126;8.450;2024-03-06T00:39:51;4.05;;;3.33;;
29412;SDS011;16389;50.126;8.450;2024-03-06T00:42:17;5.50;;;3.20;;
29412;SDS011;16389;50.126;8.450;2024-03-06T00:44:42;3.97;;;3.15;;
29412;SDS011;16389;50.126;8.450;2024-03-06T00:47:08;4.43;;;3.85;;
29412;SDS011;16389;50.126;8.450;2024-03-06T00:49:33;4.80;;;3.45;;
29412;SDS011;16389;50.126;8.450;2024-03-06T00:51:59;4.85;;;3.83;;
29412;SDS011;16389;50.126;8.450;2024-03-06T00:54:25;4.85;;;2.85;;
29412;SDS011;16389;50.126;8.450;2024-03-06T00:56:50;3.08;;;2.78;;
29412;SDS011;16389;50.126;8.450;2024-03-06T00:59:16;3.33;;;2.72;;
29412;SDS011;16389;50.126;8.450;2024-03-06T01:01:42;3.13;;;2.42;;
29412;SDS011;16389;50.126;8.450;2024-03-06T01:04:08;3.50;;;3.20;;
29412;SDS011;16389;50.126;8.450;2024-03-06T01:06:34;4.43;;;2.95;;
29412;SDS011;16389;50.126;8.450;2024-03-06T01:08:59;4.35;;;3.40;;
29412;SDS011;16389;50.126;8.450;2024-03-06T01:11:25;5.45;;;3.25;;
29412;SDS011;16389;50.126;8.450;2024-03-06T01:13:54;5.00;;;3.45;;
29412;SDS011;16389;50.126;8.450;2024-03-06T01:16:19;4.78;;;3.55;;
29412;SDS011;16389;50.126;8.450;2024-03-06T01:18:45;4.85;;;3.65;;
29412;SDS011;16389;50.126;8.450;2024-03-06T01:21:11;6.35;;;3.67;;
29412;SDS011;16389;50.126;8.450;2024-03-06T01:23:36;4.57;;;3.20;;
29412;SDS011;16389;50.126;8.450;2024-03-06T01:26:02;5.40;;;3.42;;
29412;SDS011;16389;50.126;8.450;2024-03-06T01:28:28;3.95;;;3.58;;
29412;SDS011;16389;50.126;8.450;2024-03-06T01:30:53;4.07;;;3.58;;
29412;SDS011;16389;50.126;8.450;2024-03-06T01:33:19;4.22;;;3.83;;
29412;SDS011;16389;50.126;8.450;2024-03-06T01:35:45;4.55;;;3.03;;
29412;SDS011;16389;50.126;8.450;2024-03-06T01:38:10;5.10;;;3.42;;
29412;SDS011;16389;50.126;8.450;2024-03-06T01:40:36;7.40;;;4.05;;
29412;SDS011;16389;50.126;8.450;2024-03-06T01:43:02;5.43;;;3.65;;
29412;SDS011;16389;50.126;8.450;2024-03-06T01:45:27;4.47;;;4.07;;
29412;SDS011;16389;50.126;8.450;2024-03-06T01:47:53;5.63;;;5.03;;
29412;SDS011;16389;50.126;8.450;2024-03-06T01:50:19;5.38;;;4.72;;
29412;SDS011;16389;50.126;8.450;2024-03-06T01:52:44;6.05;;;4.68;;
29412;SDS011;16389;50.126;8.450;2024-03-06T01:55:12;6.15;;;4.95;;
29412;SDS011;16389;50.126;8.450;2024-03-06T01:57:40;5.72;;;5.13;;
29412;SDS011;16389;50.126;8.450;2024-03-06T02:00:07;6.68;;;5.78;;
29412;SDS011;16389;50.126;8.450;2024-03-06T02:02:38;8.70;;;5.43;;
29412;SDS011;16389;50.126;8.450;2024-03-06T02:05:06;7.25;;;5.43;;
29412;SDS011;16389;50.126;8.450;2024-03-06T02:07:32;6.32;;;5.60;;
29412;SDS011;16389;50.126;8.450;2024-03-06T02:12:29;8.95;;;5.80;;
29412;SDS011;16389;50.126;8.450;2024-03-06T02:14:55;5.88;;;5.18;;
29412;SDS011;16389;50.126;8.450;2024-03-06T02:17:20;6.53;;;5.05;;
29412;SDS011;16389;50.126;8.450;2024-03-06T02:19:46;5.30;;;4.65;;
29412;SDS011;16389;50.126;8.450;2024-03-06T02:22:12;8.05;;;4.78;;
29412;SDS011;16389;50.126;8.450;2024-03-06T02:24:38;6.75;;;4.55;;
29412;SDS011;16389;50.126;8.450;2024-03-06T02:27:08;7.00;;;5.07;;
29412;SDS011;16389;50.126;8.450;2024-03-06T02:29:34;6.60;;;5.93;;
29412;SDS011;16389;50.126;8.450;2024-03-06T02:31:59;6.60;;;5.05;;
29412;SDS011;16389;50.126;8.450;2024-03-06T02:34:27;7.97;;;4.18;;
29412;SDS011;16389;50.126;8.450;2024-03-06T02:36:54;5.78;;;5.07;;
29412;SDS011;16389;50.126;8.450;2024-03-06T02:39:19;8.77;;;5.47;;
29412;SDS011;16389;50.126;8.450;2024-03-06T02:41:46;5.65;;;4.70;;
29412;SDS011;16389;50.126;8.450;2024-03-06T02:44:12;5.38;;;4.88;;
29412;SDS011;16389;50.126;8.450;2024-03-06T02:46:38;7.53;;;5.43;;
29412;SDS011;16389;50.126;8.450;2024-03-06T02:49:04;6.82;;;5.32;;
29412;SDS011;16389;50.126;8.450;2024-03-06T02:51:31;7.15;;;5.13;;
29412;SDS011;16389;50.126;8.450;2024-03-06T02:53:56;5.47;;;4.60;;
29412;SDS011;16389;50.126;8.450;2024-03-06T02:56:22;5.93;;;3.95;;
29412;SDS011;16389;50.126;8.450;2024-03-06T02:58:47;6.63;;;4.63;;
29412;SDS011;16389;50.126;8.450;2024-03-06T03:01:13;5.53;;;4.13;;
29412;SDS011;16389;50.126;8.450;2024-03-06T03:03:42;5.47;;;3.88;;
29412;SDS011;16389;50.126;8.450;2024-03-06T03:06:09;5.45;;;4.13;;
29412;SDS011;16389;50.126;8.450;2024-03-06T03:08:36;5.57;;;3.95;;
29412;SDS011;16389;50.126;8.450;2024-03-06T03:11:02;4.18;;;3.67;;
29412;SDS011;16389;50.126;8.450;2024-03-06T03:13:28;4.03;;;3.50;;
29412;SDS011;16389;50.126;8.450;2024-03-06T03:15:55;4.30;;;3.47;;
29412;SDS011;16389;50.126;8.450;2024-03-06T03:18:20;5.28;;;4.18;;
29412;SDS011;16389;50.126;8.450;2024-03-06T03:20:46;6.15;;;4.22;;
29412;SDS011;16389;50.126;8.450;2024-03-06T03:23:12;8.10;;;3.72;;
29412;SDS011;16389;50.126;8.450;2024-03-06T03:25:40;6.65;;;3.72;;
29412;SDS011;16389;50.126;8.450;2024-03-06T03:28:08;4.13;;;3.72;;
29412;SDS011;16389;50.126;8.450;2024-03-06T03:30:34;7.20;;;4.10;;
29412;SDS011;16389;50.126;8.450;2024-03-06T03:33:00;6.13;;;3.67;;
29412;SDS011;16389;50.126;8.450;2024-03-06T03:35:26;6.47;;;3.80;;
29412;SDS011;16389;50.126;8.450;2024-03-06T03:37:51;4.85;;;3.72;;
29412;SDS011;16389;50.126;8.450;2024-03-06T03:40:17;4.97;;;4.25;;
29412;SDS011;16389;50.126;8.450;2024-03-06T03:42:44;6.13;;;4.50;;
29412;SDS011;16389;50.126;8.450;2024-03-06T03:45:09;7.00;;;4.70;;
29412;SDS011;16389;50.126;8.450;2024-03-06T03:47:35;6.47;;;5.10;;
29412;SDS011;16389;50.126;8.450;2024-03-06T03:50:00;7.60;;;5.32;;
29412;SDS011;16389;50.126;8.450;2024-03-06T03:52:26;9.88;;;6.43;;
29412;SDS011;16389;50.126;8.450;2024-03-06T03:54:52;8.65;;;5.72;;
29412;SDS011;16389;50.126;8.450;2024-03-06T03:57:18;6.32;;;5.28;;
29412;SDS011;16389;50.126;8.450;2024-03-06T03:59:43;8.73;;;6.30;;
29412;SDS011;16389;50.126;8.450;2024-03-06T04:02:09;11.00;;;5.45;;
29412;SDS011;16389;50.126;8.450;2024-03-06T04:04:34;8.27;;;5.20;;
29412;SDS011;16389;50.126;8.450;2024-03-06T04:07:00;8.32;;;5.22;;
29412;SDS011;16389;50.126;8.450;2024-03-06T04:09:30;7.03;;;4.95;;
29412;SDS011;16389;50.126;8.450;2024-03-06T04:11:57;8.32;;;5.72;;
29412;SDS011;16389;50.126;8.450;2024-03-06T04:14:23;8.38;;;5.72;;
29412;SDS011;16389;50.126;8.450;2024-03-06T04:16:48;7.22;;;5.35;;
29412;SDS011;16389;50.126;8.450;2024-03-06T04:19:14;7.47;;;5.03;;
29412;SDS011;16389;50.126;8.450;2024-03-06T04:21:40;6.53;;;5.38;;
29412;SDS011;16389;50.126;8.450;2024-03-06T04:24:07;6.65;;;5.47;;
29412;SDS011;16389;50.126;8.450;2024-03-06T04:26:33;6.07;;;4.38;;
29412;SDS011;16389;50.126;8.450;2024-03-06T04:28:59;6.72;;;5.05;;
29412;SDS011;16389;50.126;8.450;2024-03-06T04:31:24;6.68;;;5.03;;
29412;SDS011;16389;50.126;8.450;2024-03-06T04:33:50;8.35;;;5.38;;
29412;SDS011;16389;50.126;8.450;2024-03-06T04:36:16;11.18;;;5.05;;
29412;SDS011;16389;50.126;8.450;2024-03-06T04:38:41;8.18;;;4.88;;
29412;SDS011;16389;50.126;8.450;2024-03-06T04:41:07;6.30;;;4.82;;
29412;SDS011;16389;50.126;8.450;2024-03-06T04:43:33;6.15;;;4.95;;
29412;SDS011;16389;50.126;8.450;2024-03-06T04:45:59;6.60;;;4.80;;
29412;SDS011;16389;50.126;8.450;2024-03-06T04:48:24;7.10;;;4.75;;
29412;SDS011;16389;50.126;8.450;2024-03-06T04:50:51;6.90;;;5.78;;
29412;SDS011;16389;50.126;8.450;2024-03-06T04:53:16;8.73;;;6.15;;
29412;SDS011;16389;50.126;8.450;2024-03-06T04:55:42;7.45;;;5.47;;
29412;SDS011;16389;50.126;8.450;2024-03-06T04:58:08;10.60;;;5.93;;
29412;SDS011;16389;50.126;8.450;2024-03-06T05:00:35;8.23;;;6.53;;
29412;SDS011;16389;50.126;8.450;2024-03-06T05:03:00;9.55;;;7.38;;
29412;SDS011;16389;50.126;8.450;2024-03-06T05:05:26;8.40;;;6.57;;
29412;SDS011;16389;50.126;8.450;2024-03-06T05:07:52;8.05;;;6.18;;
29412;SDS011;16389;50.126;8.450;2024-03-06T05:10:17;9.20;;;5.90;;
29412;SDS011;16389;50.126;8.450;2024-03-06T05:12:43;6.78;;;4.97;;
29412;SDS011;16389;50.126;8.450;2024-03-06T05:15:09;10.23;;;5.25;;
29412;SDS011;16389;50.126;8.450;2024-03-06T05:17:35;7.57;;;5.50;;
29412;SDS011;16389;50.126;8.450;2024-03-06T05:20:01;4.85;;;4.30;;
29412;SDS011;16389;50.126;8.450;2024-03-06T05:22:28;5.75;;;4.10;;
29412;SDS011;16389;50.126;8.450;2024-03-06T05:24:54;5.88;;;4.60;;
29412;SDS011;16389;50.126;8.450;2024-03-06T05:27:20;12.57;;;5.63;;
29412;SDS011;16389;50.126;8.450;2024-03-06T05:29:46;6.50;;;5.00;;
29412;SDS011;16389;50.126;8.450;2024-03-06T05:32:12;5.63;;;4.53;;
29412;SDS011;16389;50.126;8.450;2024-03-06T05:34:38;9.23;;;5.55;;
29412;SDS011;16389;50.126;8.450;2024-03-06T05:37:04;6.47;;;5.18;;
29412;SDS011;16389;50.126;8.450;2024-03-06T05:39:30;8.43;;;5.47;;
29412;SDS011;16389;50.126;8.450;2024-03-06T05:42:00;7.55;;;5.85;;
29412;SDS011;16389;50.126;8.450;2024-03-06T05:44:32;6.82;;;6.07;;
29412;SDS011;16389;50.126;8.450;2024-03-06T05:46:59;8.02;;;5.55;;
29412;SDS011;16389;50.126;8.450;2024-03-06T05:49:26;7.10;;;5.07;;
29412;SDS011;16389;50.126;8.450;2024-03-06T05:51:52;9.07;;;5.72;;
29412;SDS011;16389;50.126;8.450;2024-03-06T05:54:18;6.10;;;5.18;;
29412;SDS011;16389;50.126;8.450;2024-03-06T05:56:47;14.27;;;6.20;;
29412;SDS011;16389;50.126;8.450;2024-03-06T05:59:17;7.63;;;5.47;;
29412;SDS011;16389;50.126;8.450;2024-03-06T06:01:43;9.00;;;6.72;;
29412;SDS011;16389;50.126;8.450;2024-03-06T06:04:09;8.95;;;6.93;;
29412;SDS011;16389;50.126;8.450;2024-03-06T06:06:35;9.07;;;7.32;;
29412;SDS011;16389;50.126;8.450;2024-03-06T06:09:02;9.57;;;7.75;;
29412;SDS011;16389;50.126;8.450;2024-03-06T06:11:30;9.10;;;7.70;;
29412;SDS011;16389;50.126;8.450;2024-03-06T06:13:56;7.60;;;6.65;;
29412;SDS011;16389;50.126;8.450;2024-03-06T06:16:22;9.52;;;6.50;;
29412;SDS011;16389;50.126;8.450;2024-03-06T06:18:47;11.38;;;6.95;;
29412;SDS011;16389;50.126;8.450;2024-03-06T06:21:13;8.63;;;6.30;;
29412;SDS011;16389;50.126;8.450;2024-03-06T06:23:39;9.07;;;6.20;;
29412;SDS011;16389;50.126;8.450;2024-03-06T06:26:04;7.88;;;6.63;;
29412;SDS011;16389;50.126;8.450;2024-03-06T06:28:30;8.55;;;6.68;;
29412;SDS011;16389;50.126;8.450;2024-03-06T06:30:55;8.93;;;5.80;;
29412;SDS011;16389;50.126;8.450;2024-03-06T06:33:21;8.07;;;6.10;;
29412;SDS011;16389;50.126;8.450;2024-03-06T06:35:47;13.43;;;6.10;;
29412;SDS011;16389;50.126;8.450;2024-03-06T06:38:13;10.73;;;7.47;;
29412;SDS011;16389;50.126;8.450;2024-03-06T06:40:39;9.93;;;7.63;;
29412;SDS011;16389;50.126;8.450;2024-03-06T06:43:05;11.10;;;7.78;;
29412;SDS011;16389;50.126;8.450;2024-03-06T06:45:31;11.43;;;7.45;;
29412;SDS011;16389;50.126;8.450;2024-03-06T06:47:57;9.98;;;7.38;;
29412;SDS011;16389;50.126;8.450;2024-03-06T06:50:23;9.52;;;7.22;;
29412;SDS011;16389;50.126;8.450;2024-03-06T06:52:51;11.20;;;7.95;;
29412;SDS011;16389;50.126;8.450;2024-03-06T06:55:17;11.18;;;8.50;;
29412;SDS011;16389;50.126;8.450;2024-03-06T06:57:43;12.77;;;7.35;;
29412;SDS011;16389;50.126;8.450;2024-03-06T07:00:09;11.95;;;7.57;;
29412;SDS011;16389;50.126;8.450;2024-03-06T07:02:38;13.70;;;7.72;;
29412;SDS011;16389;50.126;8.450;2024-03-06T07:05:04;13.77;;;6.53;;
29412;SDS011;16389;50.126;8.450;2024-03-06T07:07:30;11.80;;;8.60;;
29412;SDS011;16389;50.126;8.450;2024-03-06T07:09:56;10.50;;;7.50;;
29412;SDS011;16389;50.126;8.450;2024-03-06T07:12:22;10.27;;;7.88;;
29412;SDS011;16389;50.126;8.450;2024-03-06T07:14:48;10.32;;;7.00;;
29412;SDS011;16389;50.126;8.450;2024-03-06T07:17:14;9.63;;;7.32;;
29412;SDS011;16389;50.126;8.450;2024-03-06T07:19:39;10.80;;;7.25;;
29412;SDS011;16389;50.126;8.450;2024-03-06T07:22:05;10.30;;;6.95;;
29412;SDS011;16389;50.126;8.450;2024-03-06T07:24:31;12.13;;;7.68;;
29412;SDS011;16389;50.126;8.450;2024-03-06T07:26:57;10.07;;;6.35;;
29412;SDS011;16389;50.126;8.450;2024-03-06T07:29:22;9.57;;;7.65;;
29412;SDS011;16389;50.126;8.450;2024-03-06T07:31:48;10.82;;;7.60;;
29412;SDS011;16389;50.126;8.450;2024-03-06T07:34:14;14.18;;;8.85;;
29412;SDS011;16389;50.126;8.450;2024-03-06T07:36:40;14.13;;;9.52;;
29412;SDS011;16389;50.126;8.450;2024-03-06T07:39:06;12.13;;;8.35;;
29412;SDS011;16389;50.126;8.450;2024-03-06T07:41:32;8.95;;;7.78;;
29412;SDS011;16389;50.126;8.450;2024-03-06T07:43:58;9.95;;;8.63;;
29412;SDS011;16389;50.126;8.450;2024-03-06T07:46:24;9.60;;;8.27;;
29412;SDS011;16389;50.126;8.450;2024-03-06T07:48:50;12.20;;;8.02;;
29412;SDS011;16389;50.126;8.450;2024-03-06T07:51:16;8.65;;;7.45;;
29412;SDS011;16389;50.126;8.450;2024-03-06T07:53:42;9.32;;;7.07;;
29412;SDS011;16389;50.126;8.450;2024-03-06T07:56:10;8.90;;;7.22;;
29412;SDS011;16389;50.126;8.450;2024-03-06T07:58:36;8.95;;;7.95;;
29412;SDS011;16389;50.126;8.450;2024-03-06T08:01:02;9.40;;;8.38;;
29412;SDS011;16389;50.126;8.450;2024-03-06T08:03:28;9.00;;;7.72;;
29412;SDS011;16389;50.126;8.450;2024-03-06T08:05:54;12.70;;;8.30;;
29412;SDS011;16389;50.126;8.450;2024-03-06T08:08:19;10.32;;;8.40;;
29412;SDS011;16389;50.126;8.450;2024-03-06T08:10:45;8.43;;;7.63;;
29412;SDS011;16389;50.126;8.450;2024-03-06T08:13:11;14.45;;;10.90;;
29412;SDS011;16389;50.126;8.450;2024-03-06T08:15:37;10.38;;;9.07;;
29412;SDS011;16389;50.126;8.450;2024-03-06T08:18:02;10.55;;;8.00;;
29412;SDS011;16389;50.126;8.450;2024-03-06T08:20:28;10.73;;;7.47;;
29412;SDS011;16389;50.126;8.450;2024-03-06T08:22:54;7.93;;;7.03;;
29412;SDS011;16389;50.126;8.450;2024-03-06T08:25:21;9.27;;;7.13;;
29412;SDS011;16389;50.126;8.450;2024-03-06T08:27:48;12.25;;;7.60;;
29412;SDS011;16389;50.126;8.450;2024-03-06T08:30:13;9.00;;;7.53;;
29412;SDS011;16389;50.126;8.450;2024-03-06T08:32:40;10.45;;;9.35;;
29412;SDS011;16389;50.126;8.450;2024-03-06T08:35:10;10.27;;;8.05;;
29412;SDS011;16389;50.126;8.450;2024-03-06T08:37:38;9.90;;;8.90;;
29412;SDS011;16389;50.126;8.450;2024-03-06T08:40:06;10.23;;;9.02;;
29412;SDS011;16389;50.126;8.450;2024-03-06T08:42:35;10.80;;;9.20;;
29412;SDS011;16389;50.126;8.450;2024-03-06T08:45:01;11.25;;;10.15;;
29412;SDS011;16389;50.126;8.450;2024-03-06T08:47:27;11.27;;;10.23;;
29412;SDS011;16389;50.126;8.450;2024-03-06T08:49:53;10.68;;;9.57;;
29412;SDS011;16389;50.126;8.450;2024-03-06T08:52:18;10.00;;;9.07;;
29412;SDS011;16389;50.126;8.450;2024-03-06T08:54:45;10.85;;;9.75;;
29412;SDS011;16389;50.126;8.450;2024-03-06T08:57:11;18.00;;;9.18;;
29412;SDS011;16389;50.126;8.450;2024-03-06T08:59:37;11.35;;;9.07;;
29412;SDS011;16389;50.126;8.450;2024-03-06T09:02:17;13.18;;;10.00;;
29412;SDS011;16389;50.126;8.450;2024-03-06T09:04:44;9.60;;;8.68;;
29412;SDS011;16389;50.126;8.450;2024-03-06T09:07:11;11.20;;;10.10;;
29412;SDS011;16389;50.126;8.450;2024-03-06T09:09:37;10.07;;;9.10;;
29412;SDS011;16389;50.126;8.450;2024-03-06T09:12:04;10.82;;;9.82;;
29412;SDS011;16389;50.126;8.450;2024-03-06T09:14:33;9.95;;;8.85;;
29412;SDS011;16389;50.126;8.450;2024-03-06T09:16:59;10.10;;;8.90;;
29412;SDS011;16389;50.126;8.450;2024-03-06T09:19:25;10.30;;;9.38;;
29412;SDS011;16389;50.126;8.450;2024-03-06T09:21:51;11.82;;;10.63;;
29412;SDS011;16389;50.126;8.450;2024-03-06T09:24:17;13.00;;;8.88;;
29412;SDS011;16389;50.126;8.450;2024-03-06T09:26:46;11.80;;;9.63;;
29412;SDS011;16389;50.126;8.450;2024-03-06T09:29:12;12.10;;;10.40;;
29412;SDS011;16389;50.126;8.450;2024-03-06T09:31:38;9.93;;;8.93;;
29412;SDS011;16389;50.126;8.450;2024-03-06T09:34:03;11.85;;;10.75;;
29412;SDS011;16389;50.126;8.450;2024-03-06T09:36:29;13.02;;;10.63;;
29412;SDS011;16389;50.126;8.450;2024-03-06T09:38:55;15.02;;;11.30;;
29412;SDS011;16389;50.126;8.450;2024-03-06T09:41:21;11.90;;;10.70;;
29412;SDS011;16389;50.126;8.450;2024-03-06T09:43:47;11.85;;;10.65;;
29412;SDS011;16389;50.126;8.450;2024-03-06T09:46:13;13.52;;;11.18;;
29412;SDS011;16389;50.126;8.450;2024-03-06T09:48:45;12.13;;;11.02;;
29412;SDS011;16389;50.126;8.450;2024-03-06T09:51:12;10.93;;;9.82;;
29412;SDS011;16389;50.126;8.450;2024-03-06T09:53:39;14.73;;;12.32;;
29412;SDS011;16389;50.126;8.450;2024-03-06T09:56:05;12.02;;;10.80;;
29412;SDS011;16389;50.126;8.450;2024-03-06T09:58:31;11.65;;;10.50;;
29412;SDS011;16389;50.126;8.450;2024-03-06T10:01:00;11.85;;;10.55;;
29412;SDS011;16389;50.126;8.450;2024-03-06T10:03:28;11.52;;;10.35;;
29412;SDS011;16389;50.126;8.450;2024-03-06T10:05:54;11.20;;;10.10;;
29412;SDS011;16389;50.126;8.450;2024-03-06T10:08:21;11.57;;;10.48;;
29412;SDS011;16389;50.126;8.450;2024-03-06T10:10:50;11.10;;;10.05;;
29412;SDS011;16389;50.126;8.450;2024-03-06T10:13:16;11.75;;;10.75;;
29412;SDS011;16389;50.126;8.450;2024-03-06T10:15:42;12.05;;;10.95;;
29412;SDS011;16389;50.126;8.450;2024-03-06T10:18:21;13.43;;;10.90;;
29412;SDS011;16389;50.126;8.450;2024-03-06T10:20:47;11.55;;;10.45;;
29412;SDS011;16389;50.126;8.450;2024-03-06T10:23:12;12.70;;;11.25;;
29412;SDS011;16389;50.126;8.450;2024-03-06T10:25:39;12.45;;;11.25;;
29412;SDS011;16389;50.126;8.450;2024-03-06T10:28:09;12.63;;;11.32;;
29412;SDS011;16389;50.126;8.450;2024-03-06T10:30:39;12.00;;;10.75;;
29412;SDS011;16389;50.126;8.450;2024-03-06T10:33:10;13.00;;;11.70;;
29412;SDS011;16389;50.126;8.450;2024-03-06T10:35:40;11.07;;;9.82;;
29412;SDS011;16389;50.126;8.450;2024-03-06T10:38:07;12.63;;;11.43;;
29412;SDS011;16389;50.126;8.450;2024-03-06T10:40:34;12.10;;;11.00;;
29412;SDS011;16389;50.126;8.450;2024-03-06T10:43:01;20.85;;;11.77;;
29412;SDS011;16389;50.126;8.450;2024-03-06T10:48:08;10.88;;;9.98;;
29412;SDS011;16389;50.126;8.450;2024-03-06T10:50:40;13.48;;;12.38;;
29412;SDS011;16389;50.126;8.450;2024-03-06T10:53:09;12.23;;;11.02;;
29412;SDS011;16389;50.126;8.450;2024-03-06T10:55:37;12.63;;;11.50;;
29412;SDS011;16389;50.126;8.450;2024-03-06T10:58:06;14.88;;;11.05;;
29412;SDS011;16389;50.126;8.450;2024-03-06T11:00:45;12.13;;;11.23;;
29412;SDS011;16389;50.126;8.450;2024-03-06T11:03:12;11.32;;;10.43;;
29412;SDS011;16389;50.126;8.450;2024-03-06T11:05:39;12.35;;;11.35;;
29412;SDS011;16389;50.126;8.450;2024-03-06T11:08:06;13.35;;;12.32;;
29412;SDS011;16389;50.126;8.450;2024-03-06T11:10:37;14.98;;;11.68;;
29412;SDS011;16389;50.126;8.450;2024-03-06T11:15:45;12.23;;;11.27;;
29412;SDS011;16389;50.126;8.450;2024-03-06T11:21:27;14.75;;;13.30;;
29412;SDS011;16389;50.126;8.450;2024-03-06T11:26:47;16.30;;;14.85;;
29412;SDS011;16389;50.126;8.450;2024-03-06T11:29:22;14.70;;;13.40;;
29412;SDS011;16389;50.126;8.450;2024-03-06T11:32:07;16.45;;;14.90;;
29412;SDS011;16389;50.126;8.450;2024-03-06T11:34:36;15.98;;;14.50;;
29412;SDS011;16389;50.126;8.450;2024-03-06T11:37:03;14.20;;;12.90;;
29412;SDS011;16389;50.126;8.450;2024-03-06T11:39:34;14.38;;;13.25;;
29412;SDS011;16389;50.126;8.450;2024-03-06T11:42:02;14.18;;;12.90;;
29412;SDS011;16389;50.126;8.450;2024-03-06T11:44:29;13.13;;;12.13;;
29412;SDS011;16389;50.126;8.450;2024-03-06T11:47:01;13.90;;;12.80;;
29412;SDS011;16389;50.126;8.450;2024-03-06T11:49:36;11.80;;;10.85;;
29412;SDS011;16389;50.126;8.450;2024-03-06T11:52:03;12.05;;;11.05;;
29412;SDS011;16389;50.126;8.450;2024-03-06T11:54:30;12.82;;;11.75;;
29412;SDS011;16389;50.126;8.450;2024-03-06T11:56:57;13.63;;;12.48;;
29412;SDS011;16389;50.126;8.450;2024-03-06T11:59:25;14.60;;;13.20;;
29412;SDS011;16389;50.126;8.450;2024-03-06T12:01:55;13.23;;;12.07;;
29412;SDS011;16389;50.126;8.450;2024-03-06T12:04:22;13.88;;;12.63;;
29412;SDS011;16389;50.126;8.450;2024-03-06T12:06:47;12.80;;;11.52;;
29412;SDS011;16389;50.126;8.450;2024-03-06T12:09:14;14.68;;;13.38;;
29412;SDS011;16389;50.126;8.450;2024-03-06T12:11:40;14.00;;;12.68;;
29412;SDS011;16389;50.126;8.450;2024-03-06T12:14:12;15.63;;;14.10;;
29412;SDS011;16389;50.126;8.450;2024-03-06T12:16:42;14.63;;;13.43;;
29412;SDS011;16389;50.126;8.450;2024-03-06T12:19:09;15.00;;;13.55;;
29412;SDS011;16389;50.126;8.450;2024-03-06T12:21:35;15.45;;;13.90;;
29412;SDS011;16389;50.126;8.450;2024-03-06T12:26:33;15.55;;;14.15;;
29412;SDS011;16389;50.126;8.450;2024-03-06T12:29:08;15.52;;;13.93;;
29412;SDS011;16389;50.126;8.450;2024-03-06T12:31:35;15.30;;;13.90;;
29412;SDS011;16389;50.126;8.450;2024-03-06T12:34:02;15.27;;;13.88;;
29412;SDS011;16389;50.126;8.450;2024-03-06T12:36:28;15.40;;;14.10;;
29412;SDS011;16389;50.126;8.450;2024-03-06T12:39:01;15.23;;;13.82;;
29412;SDS011;16389;50.126;8.450;2024-03-06T12:41:28;14.80;;;13.43;;
29412;SDS011;16389;50.126;8.450;2024-03-06T12:43:54;12.13;;;10.93;;
29412;SDS011;16389;50.126;8.450;2024-03-06T12:46:21;11.30;;;10.40;;
29412;SDS011;16389;50.126;8.450;2024-03-06T12:48:47;9.05;;;8.25;;
29412;SDS011;16389;50.126;8.450;2024-03-06T12:51:13;8.00;;;7.30;;
29412;SDS011;16389;50.126;8.450;2024-03-06T12:53:39;8.80;;;8.10;;
29412;SDS011;16389;50.126;8.450;2024-03-06T12:56:06;9.38;;;8.57;;
29412;SDS011;16389;50.126;8.450;2024-03-06T12:58:32;11.27;;;10.18;;
29412;SDS011;16389;50.126;8.450;2024-03-06T13:01:00;12.85;;;11.55;;
29412;SDS011;16389;50.126;8.450;2024-03-06T13:03:26;11.10;;;10.10;;
29412;SDS011;16389;50.126;8.450;2024-03-06T13:05:52;10.60;;;9.70;;
29412;SDS011;16389;50.126;8.450;2024-03-06T13:08:18;8.80;;;8.00;;
29412;SDS011;16389;50.126;8.450;2024-03-06T13:10:44;9.05;;;8.25;;
29412;SDS011;16389;50.126;8.450;2024-03-06T13:13:10;9.63;;;8.82;;
29412;SDS011;16389;50.126;8.450;2024-03-06T13:15:36;9.13;;;8.32;;
29412;SDS011;16389;50.126;8.450;2024-03-06T13:18:03;9.85;;;9.05;;
29412;SDS011;16389;50.126;8.450;2024-03-06T13:20:30;9.35;;;8.45;;
29412;SDS011;16389;50.126;8.450;2024-03-06T13:22:56;9.32;;;8.52;;
29412;SDS011;16389;50.126;8.450;2024-03-06T13:25:22;9.88;;;9.05;;
29412;SDS011;16389;50.126;8.450;2024-03-06T13:27:48;9.70;;;8.90;;
29412;SDS011;16389;50.126;8.450;2024-03-06T13:30:14;9.20;;;8.40;;
29412;SDS011;16389;50.126;8.450;2024-03-06T13:32:40;10.15;;;9.15;;
29412;SDS011;16389;50.126;8.450;2024-03-06T13:35:07;9.95;;;9.15;;
29412;SDS011;16389;50.126;8.450;2024-03-06T13:37:38;10.40;;;9.50;;
29412;SDS011;16389;50.126;8.450;2024-03-06T13:40:05;10.85;;;9.95;;
29412;SDS011;16389;50.126;8.450;2024-03-06T13:42:32;11.00;;;10.02;;
29412;SDS011;16389;50.126;8.450;2024-03-06T13:45:01;10.40;;;9.50;;
29412;SDS011;16389;50.126;8.450;2024-03-06T13:47:30;10.18;;;9.27;;
29412;SDS011;16389;50.126;8.450;2024-03-06T13:49:56;11.45;;;10.18;;
29412;SDS011;16389;50.126;8.450;2024-03-06T13:52:22;9.30;;;8.48;;
29412;SDS011;16389;50.126;8.450;2024-03-06T13:54:48;9.93;;;9.02;;
29412;SDS011;16389;50.126;8.450;2024-03-06T13:57:14;10.38;;;9.48;;
29412;SDS011;16389;50.126;8.450;2024-03-06T13:59:41;11.30;;;10.35;;
29412;SDS011;16389;50.126;8.450;2024-03-06T14:02:07;10.25;;;9.32;;
29412;SDS011;16389;50.126;8.450;2024-03-06T14:04:33;11.02;;;10.13;;
29412;SDS011;16389;50.126;8.450;2024-03-06T14:06:59;10.98;;;9.85;;
29412;SDS011;16389;50.126;8.450;2024-03-06T14:09:26;9.75;;;8.85;;
29412;SDS011;16389;50.126;8.450;2024-03-06T14:11:52;11.07;;;10.07;;
29412;SDS011;16389;50.126;8.450;2024-03-06T14:14:18;11.77;;;10.77;;
29412;SDS011;16389;50.126;8.450;2024-03-06T14:16:45;12.00;;;10.80;;
29412;SDS011;16389;50.126;8.450;2024-03-06T14:19:11;11.82;;;10.82;;
29412;SDS011;16389;50.126;8.450;2024-03-06T14:21:37;11.52;;;10.48;;
29412;SDS011;16389;50.126;8.450;2024-03-06T14:24:04;11.20;;;10.25;;
29412;SDS011;16389;50.126;8.450;2024-03-06T14:26:34;11.23;;;10.20;;
29412;SDS011;16389;50.126;8.450;2024-03-06T14:29:00;11.50;;;10.43;;
29412;SDS011;16389;50.126;8.450;2024-03-06T14:31:31;12.88;;;11.75;;
29412;SDS011;16389;50.126;8.450;2024-03-06T14:33:57;14.05;;;12.38;;
29412;SDS011;16389;50.126;8.450;2024-03-06T14:36:23;13.27;;;11.90;;
29412;SDS011;16389;50.126;8.450;2024-03-06T14:38:52;13.45;;;12.15;;
29412;SDS011;16389;50.126;8.450;2024-03-06T14:41:18;11.80;;;10.68;;
29412;SDS011;16389;50.126;8.450;2024-03-06T14:43:45;11.35;;;10.35;;
29412;SDS011;16389;50.126;8.450;2024-03-06T14:46:12;11.90;;;10.80;;
29412;SDS011;16389;50.126;8.450;2024-03-06T14:48:38;11.07;;;10.07;;
29412;SDS011;16389;50.126;8.450;2024-03-06T14:51:05;11.38;;;10.38;;